Archival Weather

Annapolis United States Naval

Annapolis United States Naval, Maryland (KNAK)

Report from: Tuesday, June 6, 2023 10:54 PM UTC
Current time: Friday, April 19, 2024 9:16 AM UTC

Current weather – Weather history – Daily summaries
Weather forecast

Present weatherHaze
Temperature26.1°C (79.0°F)
Dew point10.6°C (51.1°F)
Winds 6 kts (3.1 m/s, 6.9 mph) West-Southwest (250°)
Visibility6 mi. (9.7 km)
Clouds Sky clear
Altimeter29.64 in.Hg (1004 mB)
Relative humidity38 %
Density altitude1,782 ft. (543 m)
Sea-level pressure100.4 kPa (1004 mB, 29.64 in.Hg)
Remarks Fully automated report
Automated weather observing station with precipitation discriminator
Flight conditions Visual Meteorological Conditions
Raw dataKNAK 062254Z AUTO 25006KT 6SM HZ CLR 26/11 A2964 RMK AO2 SLP038 T02610106
An error has occurred. This application may no longer respond until reloaded. Reload 🗙